Abbott Park, IL

1:41 PM CST on February 01, 2015 (GMT -0600)
NE North Chicago | Change Station
CLOSE
Current Station
Personal Weather Station
Location: North Chicago, IL
Elevation: 656 ft
Nearby Weather Stations

Elev 656 ft 42.34 °N, 87.84 °W | Updated 4 minutes ago

Snow
Snow
24.1 °F
Feels Like 15 °F
N
8.9
Wind Variable Wind from NE

Today
High -- | Low -- °F
--% Chance of Precip.
Yesterday
High -- | Low -- °F
Precip. -- in
7:05 AM 5:05 PM
Waxing Gibbous, 96% visible
Pressure 29.88 in
Visibility 0.2 miles
Clouds
Windchill 15 °F
Dew Point 24 °F
Humidity 99%
Rainfall 0.00 in
Snow Depth Not available.
UV Not available.
Pollen .10 out of 12
Air Quality Not available.
Flu Activity Not available.
METAR KUGN 011855Z 03021G30KT 1/4SM +SN FZFG VV008 M05/M06 A2983 RMK AO2 PK WND 05031/1843 SLP118 P0000 T10501061

More Conditions Fewer Conditions

Pressure 29.88 in
Visibility 0.2 miles
Clouds
Windchill 15 °F
Dew Point 24 °F
Humidity 99%
Rainfall 0.00 in
Snow Depth Not available.
UV Not available.
Pollen .10 out of 12
Air Quality Not available.
Flu Activity Not available.
METAR KUGN 011855Z 03021G30KT 1/4SM +SN FZFG VV008 M05/M06 A2983 RMK AO2 PK WND 05031/1843 SLP118 P0000 T10501061

More Conditions Fewer Conditions

10-Day Weather Forecast

Almanac

Astronomy

Feb. 01, 2015 Rise Set
Actual Time
Civil Twilight
Nautical Twilight
Astronomical Twilight
Moon
Length of Visible Light
Length of Day
Tomorrow will be .
, % of the Moon is Illuminated

Today's Extremes

State Highs State Lows

Community

WunderPhotos

Upload Photos

1,792,471 photos uploaded!

WunderBlogs® & News

Nearby

Air Quality

  Air Quality AQ Index Pollutant
Not available.

Snow Depth

Station Depth Elevation

Earthquake Activity

City Distance Mag. Time & Date
Minimum magnitude displayed is 2.5.

Coastal Water Temperatures

Place Temperature

Nearby Weather Stations